Aérodrome :
LOGIN :

S'inscrire | Disclaimer

   EN    FR    IT 

 










Légende :    VFR   VFR Marginal   IFR   IFR Intensif   IFR Très Intensif
Visi : 
Plafond : 
>= 8 km
>= 3000ft
5 à 8 km
1000 à 3000 ft
1500m à 5 km
500 à 1000 ft
800 à 1500m
200 à 500 ft
< 800m
< 200 ft
Symboles :   Orages  Brouillard  Fortes neiges  Fortes précipitations  Vent > 20 kt
SIGMETs :   Divers  Orages  Givrage  Turbulence  Onde Orograph.  Cendres Volcan.






- Altitude de l'aérodrome : 46 ft
- Code IATA : PAF


LPMT - Montijo Air Base

DERNIER METAR :
  • 011200Z 27006KT 9999 FEW035 22/18 Q1013

METARs EXPIRÉS :
  • 011100Z 13005KT 100V160 9999 FEW029 SCT042 24/15 Q1013

TAF TAF LPMT
Valide du 01 à 12h jusqu'au 02 à 12h UTC


011101Z 0112/0212 VRB02KT 9999 FEW030
BECMG 0115/0117 27008KT
BECMG 0121/0123 VRB02KT
PROB40 0201/0206 3000 BR BKN004
BECMG 0208/0210 23008KT



MET'MAP, la Météo Aéronautique d'un coup d'oeil ! - Copyright ORBIFLY Décembre 2007 - Disclaimer

ORBIFLY MET'MAP TEAM :

Programmation & Développement : Alexandra Zaïnal
Sur une idée originale de : Baudouin d'Aumeries
Assistance à la programmation : Marc-Olivier Méhu
Soutien technique & logistique : Manuel Goepfert

Contact : metmap@orbifly.com




SOURCES & CREDITS :

   NOAA